METAR Data
IDs: Format: Raw Decoded Include TAF

Data at: 0912 UTC 07 Dec 2021

KERV 070855Z AUTO 36003KT 10SM CLR 05/00 A3013 RMK AO2 T00500000
KERV 070835Z AUTO 33003KT 10SM CLR 05/00 A3014 RMK AO2 T00510000
KERV 070815Z AUTO 00000KT 10SM CLR 05/00 A3013 RMK AO2 T00520000
KERV 070755Z AUTO 00000KT 10SM CLR 05/00 A3013 RMK AO2 T00500002
KERV 070735Z AUTO 00000KT 10SM CLR 05/M01 A3012 RMK AO2 T00501006
KERV 070715Z AUTO 00000KT 10SM CLR 05/M01 A3013 RMK AO2 T00501007
KERV 070655Z AUTO 00000KT 10SM CLR 05/00 A3016 RMK AO2 T00500002
KERV 070635Z AUTO 00000KT 10SM CLR 04/00 A3016 RMK AO2 T00401005
KERV 070615Z AUTO 00000KT 10SM CLR 04/M01 A3017 RMK AO2 T00381009
KERV 070555Z AUTO 01003KT 10SM CLR 04/M01 A3017 RMK AO2 T00361014 10106 20036 401780036
KERV 070535Z AUTO 35004KT 10SM CLR 05/M02 A3018 RMK AO2 T00501016
KERV 070515Z AUTO 00000KT 10SM CLR 06/M03 A3019 RMK AO2 T00571027

KT82 070855Z AUTO 31003KT 10SM CLR 04/M01 A3014 RMK AO2 T00401014
KT82 070835Z AUTO 00000KT 10SM CLR 05/M02 A3013 RMK AO2 T00481018
KT82 070815Z AUTO 00000KT 10SM CLR 05/M03 A3013 RMK AO2 T00471027
KT82 070755Z AUTO 00000KT 10SM CLR 05/M03 A3013 RMK AO2 T00451026
KT82 070735Z AUTO 00000KT 10SM CLR 05/M02 A3013 RMK AO2 T00461021
KT82 070715Z AUTO 00000KT 10SM CLR 04/M03 A3014 RMK AO2 T00441027
KT82 070655Z AUTO 00000KT 10SM CLR 04/M01 A3014 RMK AO2 T00361012
KT82 070635Z AUTO 00000KT 10SM CLR 03/M03 A3015 RMK AO2 T00341026
KT82 070615Z AUTO 00000KT 10SM CLR 04/M02 A3015 RMK AO2 T00371025
KT82 070555Z AUTO 00000KT 10SM CLR 04/M03 A3017 RMK AO2 T00351027 10095 20028 401900028
KT82 070535Z AUTO 35003KT 10SM CLR 04/M03 A3018 RMK AO2 T00361034
KT82 070515Z AUTO 00000KT 10SM CLR 03/M04 A3018 RMK AO2 T00341038

KHDO 070851Z AUTO 34006KT 10SM CLR 08/00 A3013 RMK AO2 SLP197 T00830000 56017
KHDO 070751Z AUTO 34005KT 10SM CLR 08/01 A3014 RMK AO2 SLP199 T00830006
KHDO 070651Z AUTO 00000KT 10SM CLR 09/01 A3015 RMK AO2 SLP204 T00940011
KHDO 070551Z AUTO 33005KT 10SM FEW080 FEW095 BKN110 11/02 A3019 RMK AO2 SLP215 T01060017 10144 20100 402000100 55001

KCVB 070854Z AUTO 31006KT 7SM OVC044 11/00 A3015 RMK AO2
KCVB 070834Z AUTO 33003KT 5SM BKN046 11/M01 A3015 RMK AO2
KCVB 070814Z AUTO 36003KT 5SM SCT045 11/M01 A3015 RMK AO2
KCVB 070754Z AUTO 00000KT 7SM SCT045 11/M02 A3015 RMK AO2
KCVB 070734Z AUTO 01003KT 7SM SCT044 12/M04 A3015 RMK AO2
KCVB 070714Z AUTO 00000KT 7SM SCT044 12/M03 A3016 RMK AO2
KCVB 070654Z AUTO 00000KT 5SM HZ SCT044 12/M04 A3017 RMK AO2
KCVB 070634Z AUTO 01004KT 5SM HZ SCT043 12/M04 A3017 RMK AO2
KCVB 070614Z AUTO 35004KT 5SM HZ BKN043 12/M04 A3019 RMK AO2
KCVB 070554Z AUTO 01005KT 4SM HZ BKN045 BKN090 BKN120 13/M04 A3019 RMK AO2
KCVB 070534Z AUTO 04004KT 7SM SCT120 13/M04 A3020 RMK AO2
KCVB 070514Z AUTO 02004KT 5SM HZ CLR 13/M04 A3020 RMK AO2

KJCT 070851Z AUTO 23004KT 10SM CLR 01/M07 A3016 RMK AO2 SLP200 T00111067 56008 $
KJCT 070751Z AUTO 29004KT 10SM CLR 01/M07 A3017 RMK AO2 SLP200 T00111067 $
KJCT 070651Z AUTO 29003KT 10SM CLR 02/M07 A3017 RMK AO2 SLP202 T00171067 $
KJCT 070551Z AUTO 00000KT 10SM CLR 02/M07 A3019 RMK AO2 SLP209 T00221067 10106 20022 401780022 58007 $